createdAt,value
2017-07-01T00:00:40.641Z,991.19
2017-07-01T00:01:40.682Z,991.15
2017-07-01T00:02:40.718Z,991.13
2017-07-01T00:03:40.759Z,991.15
2017-07-01T00:04:40.797Z,991.17
2017-07-01T00:05:40.834Z,991.14
2017-07-01T00:06:40.872Z,991.18
2017-07-01T00:07:40.914Z,991.2
2017-07-01T00:08:40.950Z,991.2
2017-07-01T00:09:40.987Z,991.2
2017-07-01T00:10:41.028Z,991.17
2017-07-01T00:11:41.065Z,991.19
2017-07-01T00:12:41.102Z,991.21
2017-07-01T00:13:41.141Z,991.19
2017-07-01T00:14:41.185Z,991.15
2017-07-01T00:15:41.220Z,991.18
2017-07-01T00:16:41.258Z,991.17
2017-07-01T00:17:41.295Z,991.19
2017-07-01T00:18:41.335Z,991.19
2017-07-01T00:19:41.371Z,991.16
2017-07-01T00:20:41.412Z,991.19
2017-07-01T00:21:41.450Z,991.16
2017-07-01T00:22:41.485Z,991.14
2017-07-01T00:23:41.528Z,991.14
2017-07-01T00:24:41.564Z,991.19
2017-07-01T00:25:41.604Z,991.17
2017-07-01T00:26:41.642Z,991.15
2017-07-01T00:27:41.681Z,991.12
2017-07-01T00:28:41.720Z,991.15
2017-07-01T00:29:41.758Z,991.14
2017-07-01T00:30:41.795Z,991.11
2017-07-01T00:31:41.832Z,991.04
2017-07-01T00:32:41.872Z,991.04
2017-07-01T00:33:41.908Z,991.03
2017-07-01T00:34:41.949Z,991.03
2017-07-01T00:35:41.987Z,991.07
2017-07-01T00:36:42.026Z,991.11
2017-07-01T00:37:42.065Z,991.05
2017-07-01T00:38:42.099Z,991.03
2017-07-01T00:39:42.139Z,991.07
2017-07-01T00:40:42.179Z,991.09
2017-07-01T00:41:42.217Z,991.09
2017-07-01T00:42:42.253Z,991.1
2017-07-01T00:43:42.294Z,991.08
2017-07-01T00:44:42.332Z,991.1
2017-07-01T00:45:42.369Z,991.09
2017-07-01T00:46:42.423Z,991.05
2017-07-01T00:47:42.451Z,991.08
2017-07-01T00:48:42.482Z,991.03
2017-07-01T00:49:42.522Z,991.05
2017-07-01T00:50:42.560Z,991.06
2017-07-01T00:51:42.598Z,991.11
2017-07-01T00:52:42.637Z,991.11
2017-07-01T00:53:42.675Z,991.08
2017-07-01T00:54:42.715Z,991.15
2017-07-01T00:55:42.750Z,991.1
2017-07-01T00:56:42.790Z,991.12
2017-07-01T00:57:42.830Z,991.09
2017-07-01T00:58:42.865Z,991.14
2017-07-01T00:59:42.906Z,991.09
2017-07-01T01:00:42.942Z,991.11
2017-07-01T01:01:42.982Z,991.1
2017-07-01T01:02:43.022Z,991.11
2017-07-01T01:03:43.150Z,991.1
2017-07-01T01:04:43.098Z,991.13
2017-07-01T01:05:43.133Z,991.13
2017-07-01T01:06:43.170Z,991.08
2017-07-01T01:07:43.213Z,991.1
2017-07-01T01:08:43.251Z,991.1
2017-07-01T01:09:43.288Z,991.1
2017-07-01T01:10:43.323Z,991.1
2017-07-01T01:11:43.366Z,991.12
2017-07-01T01:12:43.404Z,991.1
2017-07-01T01:13:43.441Z,991.07
2017-07-01T01:14:43.479Z,991.11
2017-07-01T01:15:43.515Z,991.11
2017-07-01T01:16:43.556Z,991.12
2017-07-01T01:17:43.590Z,991.1
2017-07-01T01:18:43.632Z,991.09
2017-07-01T01:19:43.670Z,991.07
2017-07-01T01:20:43.707Z,991.07
2017-07-01T01:21:43.742Z,991.09
2017-07-01T01:22:43.782Z,991.15
2017-07-01T01:23:43.823Z,991.01
2017-07-01T01:24:43.859Z,991.09
2017-07-01T01:25:43.896Z,991.12
2017-07-01T01:26:43.935Z,991.07
2017-07-01T01:27:43.973Z,991.12
2017-07-01T01:28:44.013Z,991.11
2017-07-01T01:29:44.049Z,991.1
2017-07-01T01:30:44.092Z,991.12
2017-07-01T01:31:44.128Z,991.1
2017-07-01T01:32:44.163Z,991.11
2017-07-01T01:33:44.204Z,991.14
2017-07-01T01:34:44.241Z,991.12
2017-07-01T01:35:44.284Z,991.15
2017-07-01T01:36:44.319Z,991.13
2017-07-01T01:37:44.357Z,991.11
2017-07-01T01:38:44.398Z,991.1
2017-07-01T01:39:44.431Z,991.14
2017-07-01T01:40:44.472Z,991.12
2017-07-01T01:41:44.511Z,991.18
2017-07-01T01:42:44.549Z,991.18
2017-07-01T01:43:44.583Z,991.16
2017-07-01T01:44:44.630Z,991.21
2017-07-01T01:45:44.660Z,991.19
2017-07-01T01:46:44.701Z,991.21
2017-07-01T01:47:44.737Z,991.21
2017-07-01T01:48:44.779Z,991.21
2017-07-01T01:49:44.814Z,991.21
2017-07-01T01:50:44.853Z,991.21
2017-07-01T01:51:44.892Z,991.25
2017-07-01T01:52:44.930Z,991.21
2017-07-01T01:53:44.966Z,991.2
2017-07-01T01:54:45.007Z,991.14
2017-07-01T01:55:45.045Z,991.15
2017-07-01T01:56:45.082Z,991.15
2017-07-01T01:57:45.121Z,991.14
2017-07-01T01:58:45.160Z,991.13
2017-07-01T01:59:45.198Z,991.11
2017-07-01T02:00:45.236Z,991.05
2017-07-01T02:01:45.275Z,991.07
2017-07-01T02:02:45.312Z,991.08
2017-07-01T02:03:45.348Z,991.05
2017-07-01T02:04:45.388Z,991.04
2017-07-01T02:05:45.441Z,991.07
2017-07-01T02:06:45.465Z,991.02
2017-07-01T02:07:45.503Z,991.06
2017-07-01T02:08:45.540Z,991.05
2017-07-01T02:09:45.576Z,991.07
2017-07-01T02:10:45.616Z,991.03
2017-07-01T02:11:45.653Z,991.04
2017-07-01T02:12:45.694Z,991.03
2017-07-01T02:13:45.728Z,990.98
2017-07-01T02:14:45.767Z,991.06
2017-07-01T02:15:45.809Z,991.06
2017-07-01T02:16:45.844Z,991.06
2017-07-01T02:17:45.885Z,991.05
2017-07-01T02:18:45.920Z,991.05
2017-07-01T02:19:45.961Z,991.02
2017-07-01T02:20:45.998Z,991
2017-07-01T02:21:46.038Z,991.01
2017-07-01T02:22:46.075Z,991.03
2017-07-01T02:23:46.113Z,991.01
2017-07-01T02:24:46.149Z,991.02
2017-07-01T02:25:46.187Z,991
2017-07-01T02:26:46.229Z,991.01
2017-07-01T02:27:46.265Z,991
2017-07-01T02:28:46.301Z,990.99
2017-07-01T02:29:46.343Z,991.01
2017-07-01T02:30:46.380Z,991
2017-07-01T02:31:46.416Z,991.02
2017-07-01T02:32:46.455Z,991.01
2017-07-01T02:33:46.495Z,991.01
2017-07-01T02:34:46.531Z,991
2017-07-01T02:35:46.568Z,991.05
2017-07-01T02:36:46.646Z,990.97
2017-07-01T02:37:46.646Z,990.99
2017-07-01T02:38:46.686Z,991.03
2017-07-01T02:39:46.722Z,991.01
2017-07-01T02:40:46.762Z,991.03
2017-07-01T02:41:46.797Z,991.06
2017-07-01T02:42:46.839Z,991.06
2017-07-01T02:43:46.875Z,991.03
2017-07-01T02:44:46.916Z,991.08
2017-07-01T02:45:46.952Z,991.06
2017-07-01T02:46:46.992Z,991.05
2017-07-01T02:47:47.031Z,991.03
2017-07-01T02:48:47.067Z,991.04
2017-07-01T02:49:47.106Z,991.04
2017-07-01T02:50:47.142Z,991.06
2017-07-01T02:51:47.184Z,991.03
2017-07-01T02:52:47.220Z,990.99
2017-07-01T02:53:47.257Z,991.03
2017-07-01T02:54:47.298Z,991.04
2017-07-01T02:55:47.334Z,991.04
2017-07-01T02:56:47.371Z,991.04
2017-07-01T02:57:47.410Z,991.06
2017-07-01T02:58:47.452Z,991.03
2017-07-01T02:59:47.489Z,991.04
2017-07-01T03:00:47.528Z,991.02
2017-07-01T03:01:47.566Z,991.06
2017-07-01T03:02:47.601Z,991.04
2017-07-01T03:03:47.642Z,991.02
2017-07-01T03:04:47.679Z,991.05
2017-07-01T03:05:47.719Z,991.06
2017-07-01T03:06:47.756Z,991.04
2017-07-01T03:07:47.795Z,991.05
2017-07-01T03:08:47.832Z,991.05
2017-07-01T03:09:47.872Z,991.07
2017-07-01T03:10:47.909Z,991.06
2017-07-01T03:11:47.946Z,991.04
2017-07-01T03:12:47.986Z,991.03
2017-07-01T03:13:48.028Z,991.05
2017-07-01T03:14:48.064Z,991.07
2017-07-01T03:15:48.100Z,991.05
2017-07-01T03:16:48.142Z,991.1
2017-07-01T03:17:48.181Z,991.11
2017-07-01T03:18:48.215Z,991.07
2017-07-01T03:19:48.257Z,991.09
2017-07-01T03:20:48.296Z,991.12
2017-07-01T03:21:48.331Z,991.05
2017-07-01T03:22:48.371Z,991.1
2017-07-01T03:23:48.409Z,991.06
2017-07-01T03:24:48.445Z,991.06
2017-07-01T03:25:48.486Z,991.04
2017-07-01T03:26:48.522Z,991.06
2017-07-01T03:27:48.560Z,991.03
2017-07-01T03:28:48.602Z,991.04
2017-07-01T03:29:48.638Z,991.1
2017-07-01T03:30:48.676Z,991.08
2017-07-01T03:31:48.717Z,991.03
2017-07-01T03:32:48.755Z,991.07
2017-07-01T03:33:48.792Z,991.03
2017-07-01T03:34:48.831Z,991.08
2017-07-01T03:35:48.870Z,991.07
2017-07-01T03:36:48.906Z,991.1
2017-07-01T03:37:48.944Z,991.03
2017-07-01T03:38:48.985Z,991.03
2017-07-01T03:39:49.024Z,991.05
2017-07-01T03:40:49.059Z,991.05
2017-07-01T03:41:49.101Z,991.05
2017-07-01T03:42:49.172Z,991.07
2017-07-01T03:43:49.178Z,991.05
2017-07-01T03:44:49.217Z,991.04
2017-07-01T03:45:49.253Z,991.07
2017-07-01T03:46:49.293Z,991.08
2017-07-01T03:47:49.332Z,991.1
2017-07-01T03:48:49.367Z,991.1
2017-07-01T03:49:49.408Z,991.08
2017-07-01T03:50:49.447Z,991.08
2017-07-01T03:51:49.485Z,991.13
2017-07-01T03:52:49.524Z,991.09
2017-07-01T03:53:49.559Z,991.11
2017-07-01T03:54:49.599Z,991.09
2017-07-01T03:55:49.642Z,991.11
2017-07-01T03:56:49.681Z,991.14
2017-07-01T03:57:49.714Z,991.17
2017-07-01T03:58:49.755Z,991.17
2017-07-01T03:59:49.791Z,991.18
2017-07-01T04:00:49.832Z,991.18
2017-07-01T04:01:49.870Z,991.23
2017-07-01T04:02:49.908Z,991.16
2017-07-01T04:03:49.944Z,991.2
2017-07-01T04:04:49.987Z,991.2
2017-07-01T04:05:50.022Z,991.18
2017-07-01T04:06:50.061Z,991.22
2017-07-01T04:07:50.132Z,991.2
2017-07-01T04:08:50.141Z,991.22
2017-07-01T04:09:50.176Z,991.21
2017-07-01T04:10:50.218Z,991.22
2017-07-01T04:11:50.280Z,991.21
2017-07-01T04:12:50.297Z,991.25
2017-07-01T04:13:50.331Z,991.28
2017-07-01T04:14:50.373Z,991.28
2017-07-01T04:15:50.410Z,991.32
2017-07-01T04:16:50.448Z,991.32
2017-07-01T04:17:50.487Z,991.35
2017-07-01T04:18:50.527Z,991.35
2017-07-01T04:19:50.568Z,991.35
2017-07-01T04:20:50.606Z,991.32
2017-07-01T04:21:50.650Z,991.31
2017-07-01T04:22:50.685Z,991.35
2017-07-01T04:23:50.724Z,991.37
2017-07-01T04:24:50.761Z,991.36
2017-07-01T04:25:50.803Z,991.33
2017-07-01T04:26:50.843Z,991.37
2017-07-01T04:27:50.878Z,991.31
2017-07-01T04:28:50.919Z,991.33
2017-07-01T04:29:50.961Z,991.3
2017-07-01T04:30:50.999Z,991.36
2017-07-01T04:31:51.038Z,991.38
2017-07-01T04:32:51.079Z,991.38
2017-07-01T04:33:51.118Z,991.39
2017-07-01T04:34:51.159Z,991.41
2017-07-01T04:35:51.197Z,991.43
2017-07-01T04:36:51.239Z,991.41
2017-07-01T04:37:51.278Z,991.42
2017-07-01T04:38:51.317Z,991.41
2017-07-01T04:39:51.357Z,991.4
2017-07-01T04:40:51.394Z,991.41
2017-07-01T04:41:51.435Z,991.44
2017-07-01T04:42:51.471Z,991.42
2017-07-01T04:43:51.511Z,991.41
2017-07-01T04:44:51.554Z,991.37
2017-07-01T04:45:51.594Z,991.33
2017-07-01T04:46:51.634Z,991.4
2017-07-01T04:47:51.676Z,991.4
2017-07-01T04:48:51.712Z,991.36
2017-07-01T04:49:51.748Z,991.37
2017-07-01T04:50:51.830Z,991.34
2017-07-01T04:51:51.827Z,991.37
2017-07-01T04:52:51.871Z,991.39
2017-07-01T04:53:51.909Z,991.4
2017-07-01T04:54:51.947Z,991.36
2017-07-01T04:55:51.989Z,991.39
2017-07-01T04:56:52.025Z,991.39
2017-07-01T04:57:52.066Z,991.35
2017-07-01T04:58:52.107Z,991.4
2017-07-01T04:59:52.146Z,991.44
2017-07-01T05:00:52.182Z,991.38
2017-07-01T05:01:52.224Z,991.4
2017-07-01T05:02:52.265Z,991.38
2017-07-01T05:03:52.304Z,991.39
2017-07-01T05:04:52.342Z,991.35
2017-07-01T05:05:52.380Z,991.42
2017-07-01T05:06:52.424Z,991.42
2017-07-01T05:07:52.458Z,991.38
2017-07-01T05:08:52.498Z,991.35
2017-07-01T05:09:52.540Z,991.44
2017-07-01T05:10:52.580Z,991.41
2017-07-01T05:11:52.623Z,991.43
2017-07-01T05:12:52.658Z,991.4
2017-07-01T05:13:52.700Z,991.38
2017-07-01T05:14:52.737Z,991.43
2017-07-01T05:15:52.778Z,991.44
2017-07-01T05:16:52.818Z,991.37
2017-07-01T05:17:52.855Z,991.42
2017-07-01T05:18:52.898Z,991.43
2017-07-01T05:19:52.938Z,991.46
2017-07-01T05:20:52.979Z,991.46
2017-07-01T05:21:53.018Z,991.42
2017-07-01T05:22:53.055Z,991.46
2017-07-01T05:23:53.094Z,991.46
2017-07-01T05:24:53.138Z,991.49
2017-07-01T05:25:53.175Z,991.5
2017-07-01T05:26:53.215Z,991.5
2017-07-01T05:27:53.255Z,991.54
2017-07-01T05:28:53.298Z,991.52
2017-07-01T05:29:53.336Z,991.51
2017-07-01T05:30:53.377Z,991.52
2017-07-01T05:31:53.415Z,991.5
2017-07-01T05:32:53.459Z,991.44
2017-07-01T05:33:53.497Z,991.48
2017-07-01T05:34:53.535Z,991.43
2017-07-01T05:35:53.582Z,991.56
2017-07-01T05:36:53.619Z,991.53
2017-07-01T05:37:53.658Z,991.55
2017-07-01T05:38:53.700Z,991.6
2017-07-01T05:39:53.737Z,991.58
2017-07-01T05:40:53.777Z,991.63
2017-07-01T05:41:53.817Z,991.63
2017-07-01T05:42:53.861Z,991.66
2017-07-01T05:43:53.901Z,991.59
2017-07-01T05:44:53.941Z,991.75
2017-07-01T05:45:53.981Z,991.75
2017-07-01T05:46:54.025Z,991.78
2017-07-01T05:47:54.064Z,991.79
2017-07-01T05:48:54.107Z,991.76
2017-07-01T05:49:54.146Z,991.73
2017-07-01T05:50:54.192Z,991.79
2017-07-01T05:51:54.230Z,991.79
2017-07-01T05:52:54.277Z,991.78
2017-07-01T05:53:54.319Z,991.82
2017-07-01T05:54:54.360Z,991.79
2017-07-01T05:55:54.404Z,991.79
2017-07-01T05:56:54.447Z,991.83
2017-07-01T05:57:54.491Z,991.87
2017-07-01T05:58:54.539Z,991.88
2017-07-01T05:59:54.580Z,991.83
2017-07-01T06:00:54.627Z,991.89
2017-07-01T06:01:54.673Z,991.89
2017-07-01T06:02:54.717Z,991.85
2017-07-01T06:03:54.763Z,991.75
2017-07-01T06:04:54.806Z,991.81
2017-07-01T06:05:54.855Z,991.84
2017-07-01T06:06:54.897Z,991.87
2017-07-01T06:07:54.947Z,991.88
2017-07-01T06:08:54.993Z,991.99
2017-07-01T06:09:55.038Z,991.9
2017-07-01T06:10:55.085Z,991.93
2017-07-01T06:11:55.128Z,991.93
2017-07-01T06:12:55.172Z,992
2017-07-01T06:13:55.218Z,991.91
2017-07-01T06:14:55.265Z,992.06
2017-07-01T06:15:55.311Z,992
2017-07-01T06:16:55.354Z,991.92
2017-07-01T06:17:55.401Z,991.93
2017-07-01T06:18:55.448Z,991.91
2017-07-01T06:19:55.491Z,991.88
2017-07-01T06:20:55.541Z,991.96
2017-07-01T06:21:55.587Z,991.98
2017-07-01T06:22:55.630Z,991.92
2017-07-01T06:23:55.676Z,991.93
2017-07-01T06:24:55.724Z,991.89
2017-07-01T06:25:55.767Z,991.95
2017-07-01T06:26:55.816Z,991.95
2017-07-01T06:27:55.861Z,991.91
2017-07-01T06:28:55.906Z,991.95
2017-07-01T06:29:55.951Z,992.02
2017-07-01T06:30:55.997Z,992.03
2017-07-01T06:31:56.038Z,992.02
2017-07-01T06:32:56.087Z,991.97
2017-07-01T06:33:56.133Z,991.95
2017-07-01T06:34:56.177Z,992.02
2017-07-01T06:35:56.226Z,991.99
2017-07-01T06:36:56.269Z,991.91
2017-07-01T06:37:56.319Z,991.94
2017-07-01T06:38:56.367Z,991.93
2017-07-01T06:39:56.414Z,991.91
2017-07-01T06:40:56.459Z,991.94
2017-07-01T06:41:56.505Z,991.93
2017-07-01T06:42:56.549Z,991.96
2017-07-01T06:43:56.597Z,991.97
2017-07-01T06:44:56.643Z,991.93
2017-07-01T06:45:56.690Z,991.99
2017-07-01T06:46:56.736Z,992.03
2017-07-01T06:47:56.779Z,991.97
2017-07-01T06:48:56.832Z,991.96
2017-07-01T06:49:56.871Z,991.92
2017-07-01T06:50:56.918Z,991.99
2017-07-01T06:51:56.963Z,991.9
2017-07-01T06:52:57.006Z,991.92
2017-07-01T06:53:57.050Z,992
2017-07-01T06:54:57.095Z,992.02
2017-07-01T06:55:57.142Z,991.95
2017-07-01T06:56:57.187Z,991.99
2017-07-01T06:57:57.230Z,991.98
2017-07-01T06:58:57.276Z,991.93
2017-07-01T06:59:57.320Z,992.01
2017-07-01T07:00:57.362Z,992
2017-07-01T07:01:57.406Z,992.01
2017-07-01T07:02:57.450Z,992
2017-07-01T07:03:57.492Z,991.99
2017-07-01T07:04:57.537Z,992.02
2017-07-01T07:05:57.579Z,992.02
2017-07-01T07:06:57.622Z,991.99
2017-07-01T07:07:57.669Z,992.07
2017-07-01T07:08:57.708Z,992.03
2017-07-01T07:09:57.752Z,992.09
2017-07-01T07:10:57.798Z,992.06
2017-07-01T07:11:57.844Z,992.07
2017-07-01T07:12:57.885Z,992.1
2017-07-01T07:13:57.929Z,992.14
2017-07-01T07:14:57.974Z,992.1
2017-07-01T07:15:58.014Z,992.19
2017-07-01T07:16:58.061Z,992.16
2017-07-01T07:17:58.102Z,992.22
2017-07-01T07:18:58.148Z,992.2
2017-07-01T07:19:58.190Z,992.14
2017-07-01T07:20:58.232Z,992.25
2017-07-01T07:21:58.277Z,992.15
2017-07-01T07:22:58.323Z,992.22
2017-07-01T07:23:58.363Z,992.19
2017-07-01T07:24:58.408Z,992.18
2017-07-01T07:25:58.452Z,992.18
2017-07-01T07:26:58.494Z,992.2
2017-07-01T07:27:58.538Z,992.22
2017-07-01T07:28:58.585Z,992.23
2017-07-01T07:29:58.631Z,992.2
2017-07-01T07:30:58.670Z,992.11
2017-07-01T07:31:58.716Z,992.16
2017-07-01T07:32:58.761Z,992.16
2017-07-01T07:33:58.802Z,992.18
2017-07-01T07:34:58.849Z,992.18
2017-07-01T07:35:58.893Z,992.22
2017-07-01T07:36:58.939Z,992.21
2017-07-01T07:37:58.979Z,992.23
2017-07-01T07:38:59.024Z,992.25
2017-07-01T07:39:59.071Z,992.23
2017-07-01T07:40:59.116Z,992.29
2017-07-01T07:41:59.159Z,992.29
2017-07-01T07:42:59.206Z,992.23
2017-07-01T07:43:59.246Z,992.27
2017-07-01T07:44:59.291Z,992.25
2017-07-01T07:45:59.340Z,992.35
2017-07-01T07:46:59.384Z,992.31
2017-07-01T07:47:59.426Z,992.34
2017-07-01T07:48:59.475Z,992.29
2017-07-01T07:49:59.517Z,992.46
2017-07-01T07:50:59.566Z,992.28
2017-07-01T07:51:59.610Z,992.24
2017-07-01T07:52:59.658Z,992.32
2017-07-01T07:53:59.705Z,992.35
2017-07-01T07:54:59.750Z,992.4
2017-07-01T07:55:59.797Z,992.27
2017-07-01T07:56:59.845Z,992.4
2017-07-01T07:57:59.890Z,992.41
2017-07-01T07:58:59.939Z,992.4
2017-07-01T07:59:59.982Z,992.43
2017-07-01T08:01:00.031Z,992.37
2017-07-01T08:02:00.079Z,992.45
2017-07-01T08:03:00.130Z,992.55
2017-07-01T08:04:00.187Z,992.47
2017-07-01T08:05:00.222Z,992.39
2017-07-01T08:06:00.269Z,992.45
2017-07-01T08:07:00.318Z,992.45
2017-07-01T08:08:00.363Z,992.37
2017-07-01T08:09:00.413Z,992.53
2017-07-01T08:10:00.460Z,992.54
2017-07-01T08:11:00.507Z,992.46
2017-07-01T08:12:00.556Z,992.42
2017-07-01T08:13:00.621Z,992.41
2017-07-01T08:14:00.649Z,992.46
2017-07-01T08:15:00.698Z,992.35
2017-07-01T08:16:00.746Z,992.37
2017-07-01T08:17:00.791Z,992.33
2017-07-01T08:18:00.841Z,992.41
2017-07-01T08:19:00.885Z,992.41
2017-07-01T08:20:00.932Z,992.44
2017-07-01T08:21:00.982Z,992.44
2017-07-01T08:22:01.027Z,992.46
2017-07-01T08:23:01.073Z,992.35
2017-07-01T08:24:01.120Z,992.53
2017-07-01T08:25:01.166Z,992.43
2017-07-01T08:26:01.211Z,992.5
2017-07-01T08:27:01.259Z,992.5
2017-07-01T08:28:01.305Z,992.48
2017-07-01T08:29:01.350Z,992.51
2017-07-01T08:30:01.396Z,992.56
2017-07-01T08:31:01.442Z,992.56
2017-07-01T08:32:01.489Z,992.54
2017-07-01T08:33:01.530Z,992.54
2017-07-01T08:34:01.579Z,992.57
2017-07-01T08:35:01.622Z,992.56
2017-07-01T08:36:01.672Z,992.47
2017-07-01T08:37:01.715Z,992.44
2017-07-01T08:38:01.758Z,992.37
2017-07-01T08:39:01.803Z,992.49
2017-07-01T08:40:01.863Z,992.52
2017-07-01T08:41:01.894Z,992.48
2017-07-01T08:42:01.940Z,992.46
2017-07-01T08:43:01.985Z,992.51
2017-07-01T08:44:02.027Z,992.48
2017-07-01T08:45:02.073Z,992.52
2017-07-01T08:46:02.116Z,992.53
2017-07-01T08:47:02.163Z,992.48
2017-07-01T08:48:02.206Z,992.52
2017-07-01T08:49:02.248Z,992.54
2017-07-01T08:50:02.295Z,992.48
2017-07-01T08:51:02.337Z,992.52
2017-07-01T08:52:02.384Z,992.55
2017-07-01T08:53:02.425Z,992.57
2017-07-01T08:54:02.496Z,992.66
2017-07-01T08:55:02.517Z,992.61
2017-07-01T08:56:02.558Z,992.66
2017-07-01T08:57:02.605Z,992.6
2017-07-01T08:58:02.650Z,992.58
2017-07-01T08:59:02.690Z,992.69
2017-07-01T09:00:02.739Z,992.7
2017-07-01T09:01:02.783Z,992.78
2017-07-01T09:02:02.841Z,992.84
2017-07-01T09:03:02.871Z,992.71
2017-07-01T09:04:02.914Z,992.71
2017-07-01T09:05:02.962Z,992.61
2017-07-01T09:06:03.007Z,992.66
2017-07-01T09:07:03.049Z,992.73
2017-07-01T09:08:03.098Z,992.53
2017-07-01T09:09:03.141Z,992.61
2017-07-01T09:10:03.187Z,992.58
2017-07-01T09:11:03.230Z,992.67
2017-07-01T09:12:03.277Z,992.62
2017-07-01T09:13:03.342Z,992.69
2017-07-01T09:14:03.368Z,992.62
2017-07-01T09:15:03.411Z,992.67
2017-07-01T09:16:03.460Z,992.65
2017-07-01T09:17:03.502Z,992.51
2017-07-01T09:18:03.550Z,992.5
2017-07-01T09:19:03.596Z,992.6
2017-07-01T09:20:03.641Z,992.61
2017-07-01T09:21:03.686Z,992.66
2017-07-01T09:22:03.730Z,992.65
2017-07-01T09:23:03.776Z,992.53
2017-07-01T09:24:03.819Z,992.68
2017-07-01T09:25:03.867Z,992.6
2017-07-01T09:26:03.913Z,992.61
2017-07-01T09:27:03.956Z,992.57
2017-07-01T09:28:04.009Z,992.57
2017-07-01T09:29:04.045Z,992.6
2017-07-01T09:30:04.091Z,992.58
2017-07-01T09:31:04.135Z,992.61
2017-07-01T09:32:04.184Z,992.72
2017-07-01T09:33:04.226Z,992.76
2017-07-01T09:34:04.274Z,992.74
2017-07-01T09:35:04.315Z,992.67
2017-07-01T09:36:04.362Z,992.74
2017-07-01T09:37:04.407Z,992.69
2017-07-01T09:38:04.453Z,992.68
2017-07-01T09:39:04.494Z,992.68
2017-07-01T09:40:04.541Z,992.8
2017-07-01T09:41:04.585Z,992.8
2017-07-01T09:42:04.629Z,992.69
2017-07-01T09:43:04.672Z,992.72
2017-07-01T09:44:04.718Z,992.71
2017-07-01T09:45:04.761Z,992.73
2017-07-01T09:46:04.807Z,992.76
2017-07-01T09:47:04.849Z,992.7
2017-07-01T09:48:04.896Z,992.74
2017-07-01T09:49:04.939Z,992.7
2017-07-01T09:50:04.985Z,992.69
2017-07-01T09:51:05.028Z,992.71
2017-07-01T09:52:05.076Z,992.74
2017-07-01T09:53:05.119Z,992.75
2017-07-01T09:54:05.161Z,992.76
2017-07-01T09:55:05.208Z,992.79
2017-07-01T09:56:05.253Z,992.73
2017-07-01T09:57:05.297Z,992.75
2017-07-01T09:58:05.341Z,992.81
2017-07-01T09:59:05.386Z,992.69
2017-07-01T10:00:05.427Z,992.92
2017-07-01T10:01:05.471Z,993.02
2017-07-01T10:02:05.513Z,992.92
2017-07-01T10:03:05.559Z,992.98
2017-07-01T10:04:05.600Z,992.97
2017-07-01T10:05:05.645Z,992.92
2017-07-01T10:06:05.687Z,992.89
2017-07-01T10:07:05.733Z,992.88
2017-07-01T10:08:05.775Z,992.9
2017-07-01T10:09:05.817Z,992.8
2017-07-01T10:10:05.863Z,992.9
2017-07-01T10:11:05.905Z,992.88
2017-07-01T10:12:05.949Z,992.96
2017-07-01T10:13:05.992Z,992.82
2017-07-01T10:14:06.035Z,992.9
2017-07-01T10:15:06.077Z,992.9
2017-07-01T10:16:06.117Z,992.94
2017-07-01T10:17:06.163Z,992.9
2017-07-01T10:18:06.206Z,992.97
2017-07-01T10:19:06.244Z,992.88
2017-07-01T10:20:06.290Z,992.81
2017-07-01T10:21:06.331Z,992.98
2017-07-01T10:22:06.374Z,992.83
2017-07-01T10:23:06.417Z,992.87
2017-07-01T10:24:06.458Z,992.87
2017-07-01T10:25:06.502Z,992.91
2017-07-01T10:26:06.543Z,992.85
2017-07-01T10:27:06.590Z,992.74
2017-07-01T10:28:06.632Z,992.9
2017-07-01T10:29:06.675Z,992.8
2017-07-01T10:30:06.715Z,992.92
2017-07-01T10:31:06.757Z,992.98
2017-07-01T10:32:06.802Z,993.01
2017-07-01T10:33:06.847Z,992.91
2017-07-01T10:34:06.889Z,992.88
2017-07-01T10:35:06.929Z,993
2017-07-01T10:36:06.974Z,993.01
2017-07-01T10:37:07.015Z,993
2017-07-01T10:38:07.060Z,993.05
2017-07-01T10:39:07.100Z,993.06
2017-07-01T10:40:07.151Z,993.06
2017-07-01T10:41:07.189Z,993.06
2017-07-01T10:42:07.230Z,992.96
2017-07-01T10:43:07.274Z,993.02
2017-07-01T10:44:07.318Z,993.01
2017-07-01T10:45:07.400Z,992.99
2017-07-01T10:46:07.400Z,992.98
2017-07-01T10:47:07.446Z,992.96
2017-07-01T10:48:07.489Z,993.07
2017-07-01T10:49:07.530Z,992.97
2017-07-01T10:50:07.575Z,992.99
2017-07-01T10:51:07.616Z,993.01
2017-07-01T10:52:07.661Z,993
2017-07-01T10:53:07.705Z,993.1
2017-07-01T10:54:07.749Z,993.02
2017-07-01T10:55:07.793Z,992.88
2017-07-01T10:56:07.835Z,993.05
2017-07-01T10:57:07.877Z,993.02
2017-07-01T10:58:07.922Z,993.14
2017-07-01T10:59:07.966Z,993.18
2017-07-01T11:00:08.025Z,993.1
2017-07-01T11:01:08.067Z,993.16
2017-07-01T11:02:08.100Z,993.15
2017-07-01T11:03:08.141Z,993.02
2017-07-01T11:04:08.188Z,993.04
2017-07-01T11:05:08.254Z,993.01
2017-07-01T11:06:08.280Z,992.96
2017-07-01T11:07:08.338Z,992.97
2017-07-01T11:08:08.370Z,992.96
2017-07-01T11:09:08.414Z,992.95
2017-07-01T11:10:08.460Z,992.86
2017-07-01T11:11:08.505Z,992.9
2017-07-01T11:12:08.550Z,992.95
2017-07-01T11:13:08.595Z,992.98
2017-07-01T11:14:08.636Z,993.01
2017-07-01T11:15:08.687Z,993.11
2017-07-01T11:16:08.725Z,993.11
2017-07-01T11:17:08.769Z,993.14
2017-07-01T11:18:08.811Z,993.14
2017-07-01T11:19:08.858Z,993.08
2017-07-01T11:20:08.898Z,993.06
2017-07-01T11:21:08.941Z,993.07
2017-07-01T11:22:08.984Z,993
2017-07-01T11:23:09.031Z,993
2017-07-01T11:24:09.075Z,992.97
2017-07-01T11:25:09.117Z,992.94
2017-07-01T11:26:09.162Z,992.94
2017-07-01T11:27:09.210Z,992.94
2017-07-01T11:28:09.244Z,992.91
2017-07-01T11:29:09.289Z,992.93
2017-07-01T11:30:09.335Z,992.94
2017-07-01T11:31:09.377Z,992.94
2017-07-01T11:32:09.419Z,993.01
2017-07-01T11:33:09.465Z,992.98
2017-07-01T11:34:09.506Z,993.03
2017-07-01T11:35:09.553Z,993.04
2017-07-01T11:36:09.596Z,993.08
2017-07-01T11:37:09.636Z,993.07
2017-07-01T11:38:09.682Z,993.06
2017-07-01T11:39:09.725Z,993.08
2017-07-01T11:40:09.766Z,993.1
2017-07-01T11:41:09.809Z,993.14
2017-07-01T11:42:09.853Z,993.14
2017-07-01T11:43:09.897Z,993.05
2017-07-01T11:44:09.942Z,993.06
2017-07-01T11:45:09.982Z,993.09
2017-07-01T11:46:10.030Z,993.06
2017-07-01T11:47:10.069Z,993.05
2017-07-01T11:48:10.119Z,993
2017-07-01T11:49:10.160Z,993.06
2017-07-01T11:50:10.200Z,993.1
2017-07-01T11:51:10.245Z,993.04
2017-07-01T11:52:10.289Z,993.01
2017-07-01T11:53:10.333Z,993.1
2017-07-01T11:54:10.372Z,993.07
2017-07-01T11:55:10.420Z,993.08
2017-07-01T11:56:10.460Z,993.06
2017-07-01T11:57:10.503Z,993.07
2017-07-01T11:58:10.549Z,993.06
2017-07-01T11:59:10.591Z,993.06
2017-07-01T12:00:10.634Z,993.04
2017-07-01T12:01:10.675Z,993
2017-07-01T12:02:10.721Z,993.03
2017-07-01T12:03:10.762Z,992.96
2017-07-01T12:04:10.806Z,993.01
2017-07-01T12:05:10.850Z,993.03
2017-07-01T12:06:10.894Z,992.95
2017-07-01T12:07:10.936Z,993.03
2017-07-01T12:08:10.982Z,992.99
2017-07-01T12:09:11.025Z,992.99
2017-07-01T12:10:11.070Z,992.93
2017-07-01T12:11:11.113Z,992.87
2017-07-01T12:12:11.156Z,992.6
2017-07-01T12:13:11.199Z,992.89
2017-07-01T12:14:11.241Z,992.91
2017-07-01T12:15:11.290Z,992.88
2017-07-01T12:16:11.327Z,992.9
2017-07-01T12:17:11.370Z,992.92
2017-07-01T12:18:11.417Z,992.86
2017-07-01T12:19:11.459Z,992.92
2017-07-01T12:20:11.505Z,992.94
2017-07-01T12:21:11.546Z,992.96
2017-07-01T12:22:11.591Z,992.74
2017-07-01T12:23:11.632Z,992.77
2017-07-01T12:24:11.677Z,992.81
2017-07-01T12:25:11.719Z,992.76
2017-07-01T12:26:11.765Z,992.89
2017-07-01T12:27:11.809Z,992.81
2017-07-01T12:28:11.852Z,992.78
2017-07-01T12:29:11.893Z,992.83
2017-07-01T12:30:11.937Z,992.9
2017-07-01T12:31:11.982Z,992.89
2017-07-01T12:32:12.026Z,992.81
2017-07-01T12:33:12.066Z,992.79